Fukui, Japan

10:04 PM JST on August 30, 2015 (GMT +0900)
Komatsu | | Change Station
CLOSE
Current Station
Airport
Location: Komatsu AB,
Elevation: 30 ft
Nearby Weather Stations

Elev 30 ft 36.39 °N, 136.41 °E | Updated 1 hour ago

Light Rain
Light Rain
73 °F
Feels Like 73 °F
N
5
Wind Variable Wind from NE

Today
High -- | Low -- °F
--% Chance of Precip.
Yesterday
High -- | Low -- °F
Precip. -- in
5:24 AM 6:27 PM
Full, 99% visible
Pressure 29.86 in
Visibility 6.2 miles
Clouds Scattered Clouds 800 ft
Mostly Cloudy 2000 ft
Mostly Cloudy 3000 ft
Dew Point 70 °F
Humidity 88%
Rainfall 0.00 in
Snow Depth Not available.
UV 0 out of 12
Pollen Not available.
Air Quality Not available.
Flu Activity Not available.
METAR RJNK 301200Z 04004KT 9999 -RA SCT008 BKN020 BKN030 23/21 Q1011
Pressure 29.86 in
Visibility 6.2 miles
Clouds Scattered Clouds 800 ft
Mostly Cloudy 2000 ft
Mostly Cloudy 3000 ft
Dew Point 70 °F
Humidity 88%
Rainfall 0.00 in
Snow Depth Not available.
UV 0 out of 12
Pollen Not available.
Air Quality Not available.
Flu Activity Not available.
METAR RJNK 301200Z 04004KT 9999 -RA SCT008 BKN020 BKN030 23/21 Q1011

10-Day Weather Forecast

×

Almanac

Astronomy

Aug. 30, 2015 Rise Set
Actual Time
Civil Twilight
Nautical Twilight
Astronomical Twilight
Moon
Length of Visible Light
Length of Day
Tomorrow will be .
, % of the Moon is Illuminated

Today's Extremes

Country Highs Country Lows

Community

WunderPhotos

Upload Photos

1,850,945 photos uploaded!

WunderBlogs® & News

Nearby

Air Quality

  Air Quality AQ Index Pollutant
Not available.

Snow Depth

Station Depth Elevation

Earthquake Activity

City Distance Mag. Time & Date
Minimum magnitude displayed is 2.5.

Coastal Water Temperatures

Place Temperature

Stations

Nearby Weather Stations

Station Location Temp. Windchill Dew Point Humidity Wind Precip. Elev Updated Type